St-Michel-de-Napierville Airport

CMN3 · Quebec, 加拿大

使用的METAR站距离机场17 NM。
罗盘
风向 的 风向 320° St-Michel-de-Napierville Airport 13/31
风向 到 风: 11 kt, 阵阵 17 kt, 4 beaufort

10 kt

5 kt
改变
0 ft 1.000 2.000 3.000 4.000 5.000
Cloud Cloud
FEW 4.000
METAR CYUL 221200Z 32011G17KT 30SM FEW040 M00/M10 A3008 RMK CF1 CF TR SLP189

METAR St-Michel-de-Napierville Airport - CMN3

St-Michel-de-Napierville Airport是,加拿大中的小机场。 该机场位于纬度45,21385和经度-73,57640。 该机场有一条跑道: 13/31. 该机场的伪ICAO代码为CMN3。 机场在Montreal FIR中。

该航空气象观测是针对蒙特利尔皮埃尔·埃利奥特·特鲁多国际机场在2024年4月22日 08:00, 当地时间进行的。

机场观察

风向为320°,速度为11 kt。 已测得17 kt的阵风。

可见度为30 mi。

有几云在4.000 ft的高度。 没有观察到天花板。

温度为0 °C,阵风为-7 °C。 露点为-10 °C,相对湿度为47%。 海平面上的气压为30,08 inHg (QNH)。

白天

今天,太阳从05:55升起,在19:49降落。 这适用于St-Michel-de-Napierville Airport,世界夏令时可能有所不同。 当地时间与世界标准时间之间的时差为-4 小时。 夏令时目前正在进行中。

公司介绍

我们没有关于这个机场的公司信息。

体会

到Vliegles.nl去找飞行课程,跳伞和其他飞行体验。 浏览页面,了解St-Michel-de-Napierville Airport附近所有可用的活动。 你也可以使用搜索功能来寻找你所在地附近的特定飞行课程、跳伞或其他飞行体验。

跑道

Id 标题 侧风 逆风 侧风 %
13/31 113°-293° 5-8 kt 10-15 kt 45 %

逆风成分最大的方向会被突出显示,并用于横风计算。 这并不一定意味着这个方向在使用。

乌云

4.000 ft FEW 几云

温度 & 天气

温度 0 °C
露点 -10 °C
相对湿度 47%
风寒 -7 °C
Kp-index 1 (0-9)

评论

SLP189海平面压力为30,09 inHg (30,09 inHg)
CF1 CF TR

白天

日出
05:56
中午
12:53
日落
19:50 (11:11)

小工具

你想在你的网站上有一个关于St-Michel-de-Napierville Airport的当前航空天气(METAR)的小部件吗?

显示HTML代码
报告变更